Urb Veve Calzada, Puerto Rico
Current Conditions -  °F | °C
As of 3:53 PM on Tuesday 21 Oct 2014 (Local Time) from TJNR Reporting Station
Clear Clear  
Wind Chill: 87°   Ceiling: Unl
Heat Index: 95°   Visibility: 10mi
Dew Point: 74°   Wind: 8mph
Humidity: 65%   Direction: 60°ENE
Pressure: 29.92"   Gusts: NA
Location:  18.3304°N, 65.6573°W
Report Text: TJNR 211953Z AUTO 06007KT 10SM CLR 31/23 A2992 RMK AO2 SLP132 T03060233
Loading
Personal Weather Stations






























Interactive Weather Map
Tropical Storm Tracking
New forecast layout! Learn more

10-Day Weather Forecast

Advertisements
Track Severe Weather on mobile